createdAt,value
2019-05-09T00:01:23.648Z,13.70
2019-05-09T00:03:53.798Z,13.70
2019-05-09T00:06:23.918Z,13.70
2019-05-09T00:08:53.224Z,13.70
2019-05-09T00:11:21.875Z,13.70
2019-05-09T00:13:53.819Z,13.60
2019-05-09T00:16:23.477Z,13.50
2019-05-09T00:18:54.131Z,13.40
2019-05-09T00:21:23.997Z,13.30
2019-05-09T00:23:54.121Z,13.20
2019-05-09T00:26:23.534Z,13.10
2019-05-09T00:28:59.764Z,13.00
2019-05-09T00:31:29.862Z,12.90
2019-05-09T00:33:59.926Z,12.90
2019-05-09T00:36:28.386Z,12.90
2019-05-09T00:38:56.818Z,12.80
2019-05-09T00:41:25.274Z,12.80
2019-05-09T00:43:58.283Z,12.80
2019-05-09T00:46:30.759Z,12.80
2019-05-09T00:49:01.631Z,12.80
2019-05-09T00:51:30.158Z,12.70
2019-05-09T00:53:58.652Z,12.60
2019-05-09T00:56:27.139Z,12.60
2019-05-09T00:58:55.555Z,12.50
2019-05-09T01:01:24.308Z,12.40
2019-05-09T01:03:53.603Z,12.30
2019-05-09T01:06:24.009Z,12.20
2019-05-09T01:08:53.839Z,12.20
2019-05-09T01:11:24.361Z,12.20
2019-05-09T01:13:54.325Z,12.20
2019-05-09T01:16:24.142Z,12.20
2019-05-09T01:18:54.384Z,12.20
2019-05-09T01:21:24.052Z,12.20
2019-05-09T01:23:53.985Z,12.20
2019-05-09T01:26:24.025Z,12.20
2019-05-09T01:28:53.781Z,12.20
2019-05-09T01:31:24.166Z,12.10
2019-05-09T01:33:54.522Z,12.00
2019-05-09T01:36:23.585Z,12.00
2019-05-09T01:38:53.974Z,11.90
2019-05-09T01:41:29.787Z,12.00
2019-05-09T01:43:53.665Z,12.00
2019-05-09T01:46:23.628Z,12.00
2019-05-09T01:48:53.961Z,11.90
2019-05-09T01:51:23.318Z,11.90
2019-05-09T01:53:53.618Z,11.80
2019-05-09T01:56:23.526Z,11.70
2019-05-09T01:58:53.778Z,11.70
2019-05-09T02:01:24.091Z,11.60
2019-05-09T02:03:53.649Z,11.60
2019-05-09T02:06:24.509Z,11.60
2019-05-09T02:08:54.563Z,11.60
2019-05-09T02:11:23.833Z,11.60
2019-05-09T02:13:53.513Z,11.50
2019-05-09T02:16:33.753Z,11.50
2019-05-09T02:19:04.132Z,11.50
2019-05-09T02:21:34.342Z,11.50
2019-05-09T02:24:03.377Z,11.40
2019-05-09T02:26:33.505Z,11.40
2019-05-09T02:29:03.298Z,11.30
2019-05-09T02:31:35.106Z,11.30
2019-05-09T02:34:04.683Z,11.20
2019-05-09T02:36:32.261Z,11.20
2019-05-09T02:39:00.894Z,11.20
2019-05-09T02:41:30.350Z,11.20
2019-05-09T02:43:58.859Z,11.10
2019-05-09T02:46:34.687Z,11.10
2019-05-09T02:49:03.133Z,11.10
2019-05-09T02:51:31.582Z,11.10
2019-05-09T02:54:00.258Z,11.10
2019-05-09T02:56:29.742Z,11.00
2019-05-09T02:58:59.902Z,11.10
2019-05-09T03:01:32.659Z,11.00
2019-05-09T03:04:01.104Z,11.00
2019-05-09T03:06:30.306Z,11.00
2019-05-09T03:08:59.510Z,10.90
2019-05-09T03:11:28.940Z,10.90
2019-05-09T03:13:58.638Z,10.90
2019-05-09T03:16:29.374Z,10.90
2019-05-09T03:18:58.575Z,10.90
2019-05-09T03:21:40.831Z,11.00
2019-05-09T03:24:10.050Z,10.90
2019-05-09T03:26:40.354Z,10.90
2019-05-09T03:29:22.582Z,10.90
2019-05-09T03:31:51.562Z,11.00
2019-05-09T03:34:20.051Z,11.00
2019-05-09T03:36:48.521Z,10.90
2019-05-09T03:39:18.497Z,10.90
2019-05-09T03:41:48.698Z,10.90
2019-05-09T03:44:17.988Z,10.90
2019-05-09T03:47:08.265Z,11.00
2019-05-09T03:49:37.592Z,11.00
2019-05-09T03:52:07.543Z,10.90
2019-05-09T03:54:37.541Z,10.90
2019-05-09T03:57:24.111Z,10.90
2019-05-09T03:59:52.614Z,10.90
2019-05-09T04:02:21.104Z,11.00
2019-05-09T04:04:49.593Z,10.90
2019-05-09T04:07:18.638Z,10.90
2019-05-09T04:09:48.024Z,11.00
2019-05-09T04:12:18.123Z,11.00
2019-05-09T04:14:47.965Z,10.90
2019-05-09T04:17:18.092Z,11.00
2019-05-09T04:19:47.926Z,11.00
2019-05-09T04:22:18.137Z,11.00
2019-05-09T04:24:47.396Z,11.00
2019-05-09T04:27:20.486Z,11.00
2019-05-09T04:29:48.950Z,10.90
2019-05-09T04:32:18.258Z,11.00
2019-05-09T04:34:47.401Z,10.90
2019-05-09T04:37:17.854Z,10.90
2019-05-09T04:39:47.651Z,10.90
2019-05-09T04:42:35.054Z,10.90
2019-05-09T04:45:14.284Z,10.90
2019-05-09T04:47:43.539Z,11.00
2019-05-09T04:50:15.381Z,11.00
2019-05-09T04:52:42.868Z,11.00
2019-05-09T04:55:12.130Z,11.10
2019-05-09T04:57:40.599Z,11.00
2019-05-09T05:00:10.823Z,11.10
2019-05-09T05:02:40.911Z,11.10
2019-05-09T05:05:30.248Z,11.10
2019-05-09T05:07:58.713Z,11.10
2019-05-09T05:10:27.388Z,11.10
2019-05-09T05:12:57.314Z,11.10
2019-05-09T05:15:27.651Z,11.10
2019-05-09T05:17:58.113Z,11.10
2019-05-09T05:20:27.971Z,11.20
2019-05-09T05:23:01.190Z,11.30
2019-05-09T05:25:30.584Z,11.40
2019-05-09T05:27:59.042Z,11.40
2019-05-09T05:30:28.437Z,11.30
2019-05-09T05:32:58.781Z,11.30
2019-05-09T05:35:28.839Z,11.30
2019-05-09T05:37:58.119Z,11.50
2019-05-09T05:40:32.833Z,11.50
2019-05-09T05:42:58.516Z,11.50
2019-05-09T05:45:30.379Z,11.50
2019-05-09T05:48:03.421Z,11.70
2019-05-09T05:50:31.886Z,11.70
2019-05-09T05:53:00.727Z,11.70
2019-05-09T05:55:29.191Z,11.80
2019-05-09T05:57:58.027Z,11.80
2019-05-09T06:00:28.527Z,11.70
2019-05-09T06:02:58.626Z,11.70
2019-05-09T06:05:27.876Z,11.70
2019-05-09T06:07:57.669Z,11.70
2019-05-09T06:10:28.792Z,11.70
2019-05-09T06:12:57.550Z,11.70
2019-05-09T06:15:28.612Z,11.70
2019-05-09T06:17:57.861Z,11.70
2019-05-09T06:20:28.103Z,11.70
2019-05-09T06:22:58.240Z,11.70
2019-05-09T06:25:30.417Z,11.70
2019-05-09T06:27:58.476Z,11.70
2019-05-09T06:30:29.905Z,11.80
2019-05-09T06:32:58.974Z,11.90
2019-05-09T06:35:28.319Z,12.00
2019-05-09T06:37:58.867Z,12.00
2019-05-09T06:40:28.716Z,12.10
2019-05-09T06:42:59.354Z,12.20
2019-05-09T06:45:39.149Z,12.30
2019-05-09T06:48:07.596Z,12.40
2019-05-09T06:50:37.860Z,12.50
2019-05-09T06:53:07.981Z,12.50
2019-05-09T06:55:38.329Z,12.50
2019-05-09T06:58:24.530Z,12.50
2019-05-09T07:01:10.770Z,12.50
2019-05-09T07:03:40.879Z,12.50
2019-05-09T07:06:10.975Z,12.60
2019-05-09T07:08:41.129Z,12.60
2019-05-09T07:11:09.570Z,12.60
2019-05-09T07:13:38.243Z,12.70
2019-05-09T07:16:08.386Z,12.80
2019-05-09T07:18:38.262Z,12.80
2019-05-09T07:21:08.287Z,12.90
2019-05-09T07:23:39.854Z,12.80
2019-05-09T07:26:17.651Z,12.80
2019-05-09T07:28:48.390Z,12.90
2019-05-09T07:31:24.576Z,13.00
2019-05-09T07:34:00.582Z,13.00
2019-05-09T07:36:29.910Z,13.00
2019-05-09T07:38:58.434Z,13.00
2019-05-09T07:41:28.177Z,13.00
2019-05-09T07:43:58.287Z,13.00
2019-05-09T07:46:29.025Z,13.00
2019-05-09T07:48:58.127Z,12.80
2019-05-09T07:51:27.534Z,13.00
2019-05-09T07:53:58.695Z,13.00
2019-05-09T07:56:28.475Z,13.10
2019-05-09T07:58:58.459Z,13.20
2019-05-09T08:01:28.088Z,13.30
2019-05-09T08:03:58.369Z,13.40
2019-05-09T08:06:28.667Z,13.50
2019-05-09T08:08:58.095Z,13.50
2019-05-09T08:11:28.741Z,13.60
2019-05-09T08:13:57.593Z,13.70
2019-05-09T08:16:27.963Z,13.90
2019-05-09T08:18:57.858Z,13.80
2019-05-09T08:21:27.664Z,13.90
2019-05-09T08:23:57.921Z,13.80
2019-05-09T08:26:29.723Z,13.80
2019-05-09T08:28:58.400Z,13.90
2019-05-09T08:31:28.061Z,13.90
2019-05-09T08:33:59.052Z,13.90
2019-05-09T08:36:28.197Z,14.00
2019-05-09T08:38:58.718Z,14.30
2019-05-09T08:41:29.031Z,14.40
2019-05-09T08:43:57.702Z,14.50
2019-05-09T08:46:28.376Z,14.70
2019-05-09T08:48:57.671Z,14.70
2019-05-09T08:51:50.773Z,14.90
2019-05-09T08:54:09.350Z,15.00
2019-05-09T08:56:38.786Z,14.80
2019-05-09T08:59:08.225Z,15.00
2019-05-09T09:01:54.073Z,15.10
2019-05-09T09:04:08.088Z,15.30
2019-05-09T09:06:37.949Z,15.50
2019-05-09T09:09:08.117Z,15.60
2019-05-09T09:11:38.556Z,15.50
2019-05-09T09:14:07.867Z,15.60
2019-05-09T09:16:37.895Z,16.00
2019-05-09T09:19:08.885Z,16.20
2019-05-09T09:21:38.862Z,16.00
2019-05-09T09:24:08.769Z,15.70
2019-05-09T09:26:38.186Z,15.80
2019-05-09T09:29:08.490Z,15.70
2019-05-09T09:31:37.814Z,15.50
2019-05-09T09:34:07.971Z,15.60
2019-05-09T09:36:38.896Z,15.50
2019-05-09T09:39:08.085Z,15.60
2019-05-09T09:41:38.626Z,15.80
2019-05-09T09:44:08.794Z,15.60
2019-05-09T09:46:37.526Z,15.30
2019-05-09T09:49:07.972Z,15.20
2019-05-09T09:51:38.255Z,15.20
2019-05-09T09:54:08.761Z,15.10
2019-05-09T09:56:38.658Z,15.20
2019-05-09T09:59:19.014Z,15.20
2019-05-09T10:01:49.336Z,15.10
2019-05-09T10:04:23.761Z,15.00
2019-05-09T10:06:52.641Z,15.00
2019-05-09T10:09:18.813Z,15.00
2019-05-09T10:11:48.317Z,15.10
2019-05-09T10:14:18.729Z,15.10
2019-05-09T10:17:05.460Z,15.10
2019-05-09T10:19:38.456Z,15.20
2019-05-09T10:22:08.658Z,15.50
2019-05-09T10:24:37.079Z,15.40
2019-05-09T10:27:08.692Z,15.50
2019-05-09T10:29:38.816Z,15.60
2019-05-09T10:32:09.000Z,15.80
2019-05-09T10:34:37.862Z,15.80
2019-05-09T10:37:07.682Z,15.90
2019-05-09T10:39:38.074Z,16.00
2019-05-09T10:42:11.446Z,15.90
2019-05-09T10:44:58.338Z,16.00
2019-05-09T10:47:28.418Z,16.10
2019-05-09T10:49:58.192Z,16.10
2019-05-09T10:52:28.336Z,16.10
2019-05-09T10:54:58.064Z,16.00
2019-05-09T10:57:31.428Z,16.00
2019-05-09T10:59:57.976Z,16.10
2019-05-09T11:02:27.912Z,16.00
2019-05-09T11:04:57.604Z,16.20
2019-05-09T11:07:28.722Z,16.40
2019-05-09T11:09:58.865Z,16.60
2019-05-09T11:12:27.599Z,17.00
2019-05-09T11:14:59.129Z,16.80
2019-05-09T11:17:28.406Z,17.00
2019-05-09T11:19:58.826Z,17.00
2019-05-09T11:22:29.191Z,16.80
2019-05-09T11:24:58.015Z,17.10
2019-05-09T11:27:29.081Z,17.20
2019-05-09T11:29:57.862Z,17.70
2019-05-09T11:32:27.743Z,17.80
2019-05-09T11:34:57.572Z,17.40
2019-05-09T11:37:26.397Z,17.30
2019-05-09T11:39:54.837Z,17.50
2019-05-09T11:42:23.277Z,17.50
2019-05-09T11:44:51.715Z,17.60
2019-05-09T11:47:32.004Z,17.30
2019-05-09T11:49:50.348Z,16.90
2019-05-09T11:52:18.784Z,17.00
2019-05-09T11:54:48.211Z,17.10
2019-05-09T11:57:19.187Z,17.30
2019-05-09T11:59:48.039Z,17.10
2019-05-09T12:02:18.080Z,16.80
2019-05-09T12:04:48.719Z,16.70
2019-05-09T12:07:17.823Z,16.50
2019-05-09T12:09:48.670Z,16.60
2019-05-09T12:12:16.679Z,16.60
2019-05-09T12:14:45.127Z,17.00
2019-05-09T12:17:13.555Z,17.30
2019-05-09T12:19:42.019Z,17.10
2019-05-09T12:22:10.470Z,17.20
2019-05-09T12:24:38.913Z,17.10
2019-05-09T12:27:08.763Z,17.20
2019-05-09T12:29:38.680Z,17.00
2019-05-09T12:32:08.812Z,17.10
2019-05-09T12:34:37.563Z,17.20
2019-05-09T12:37:05.999Z,17.10
2019-05-09T12:39:34.455Z,17.10
2019-05-09T12:42:02.915Z,17.20
2019-05-09T12:44:31.498Z,17.10
2019-05-09T12:46:59.931Z,17.30
2019-05-09T12:49:28.442Z,17.70
2019-05-09T12:51:58.167Z,18.00
2019-05-09T12:54:27.962Z,17.60
2019-05-09T12:56:58.996Z,17.60
2019-05-09T12:59:28.684Z,18.10
2019-05-09T13:01:58.037Z,18.50
2019-05-09T13:04:28.228Z,18.70
2019-05-09T13:06:58.714Z,18.50
2019-05-09T13:09:28.612Z,18.40
2019-05-09T13:11:57.782Z,18.40
2019-05-09T13:14:28.420Z,18.20
2019-05-09T13:16:58.226Z,17.90
2019-05-09T13:19:38.214Z,17.70
2019-05-09T13:22:08.086Z,17.80
2019-05-09T13:24:37.882Z,18.50
2019-05-09T13:27:07.848Z,19.00
2019-05-09T13:29:38.069Z,19.70
2019-05-09T13:32:08.728Z,19.60
2019-05-09T13:34:38.029Z,19.60
2019-05-09T13:37:08.846Z,19.30
2019-05-09T13:39:39.409Z,18.90
2019-05-09T13:42:08.149Z,19.40
2019-05-09T13:44:41.251Z,19.60
2019-05-09T13:47:10.673Z,19.40
2019-05-09T13:49:39.473Z,19.50
2019-05-09T13:52:10.131Z,19.20
2019-05-09T13:54:38.357Z,18.70
2019-05-09T13:57:08.690Z,18.30
2019-05-09T13:59:37.513Z,18.10
2019-05-09T14:02:06.079Z,18.10
2019-05-09T14:04:34.550Z,18.10
2019-05-09T14:07:02.967Z,18.30
2019-05-09T14:09:31.577Z,18.20
2019-05-09T14:12:00.103Z,18.10
2019-05-09T14:14:28.568Z,18.00
2019-05-09T14:16:59.271Z,17.90
2019-05-09T14:19:40.022Z,17.80
2019-05-09T14:21:58.548Z,17.60
2019-05-09T14:24:27.934Z,17.30
2019-05-09T14:26:58.268Z,17.20
2019-05-09T14:29:31.403Z,17.20
2019-05-09T14:31:57.054Z,17.60
2019-05-09T14:34:25.554Z,18.00
2019-05-09T14:36:54.010Z,18.20
2019-05-09T14:39:22.469Z,18.30
2019-05-09T14:41:50.904Z,18.30
2019-05-09T14:44:19.354Z,18.20
2019-05-09T14:46:48.328Z,18.00
2019-05-09T14:49:17.565Z,18.10
2019-05-09T14:51:46.285Z,18.00
2019-05-09T14:54:14.745Z,18.10
2019-05-09T14:56:43.200Z,18.10
2019-05-09T14:59:11.658Z,18.40
2019-05-09T15:01:43.876Z,18.40
2019-05-09T15:04:10.268Z,18.40
2019-05-09T15:06:38.762Z,18.40
2019-05-09T15:09:08.591Z,18.40
2019-05-09T15:11:39.484Z,18.30
2019-05-09T15:14:08.305Z,18.20
2019-05-09T15:16:39.161Z,18.00
2019-05-09T15:19:08.393Z,17.80
2019-05-09T15:21:38.211Z,17.60
2019-05-09T15:24:09.301Z,17.60
2019-05-09T15:26:37.414Z,17.60
2019-05-09T15:29:07.998Z,17.60
2019-05-09T15:31:38.860Z,17.60
2019-05-09T15:34:08.788Z,17.60
2019-05-09T15:36:37.993Z,17.70
2019-05-09T15:39:08.181Z,17.80
2019-05-09T15:41:38.421Z,17.90
2019-05-09T15:44:08.264Z,17.90
2019-05-09T15:46:38.725Z,17.90
2019-05-09T15:49:07.691Z,18.00
2019-05-09T15:51:38.460Z,17.90
2019-05-09T15:54:08.337Z,18.10
2019-05-09T15:56:38.397Z,18.10
2019-05-09T15:59:06.746Z,17.90
2019-05-09T16:01:35.441Z,17.90
2019-05-09T16:04:03.858Z,17.80
2019-05-09T16:06:33.214Z,17.90
2019-05-09T16:09:01.859Z,17.90
2019-05-09T16:11:30.319Z,17.90
2019-05-09T16:13:58.748Z,17.90
2019-05-09T16:16:28.608Z,17.90
2019-05-09T16:18:58.253Z,17.90
2019-05-09T16:21:27.781Z,17.80
2019-05-09T16:23:59.071Z,17.90
2019-05-09T16:26:28.935Z,18.00
2019-05-09T16:28:58.185Z,18.00
2019-05-09T16:31:27.926Z,17.70
2019-05-09T16:33:58.170Z,17.70
2019-05-09T16:36:28.160Z,17.60
2019-05-09T16:38:58.459Z,17.60
2019-05-09T16:41:27.991Z,17.60
2019-05-09T16:43:58.381Z,17.50
2019-05-09T16:46:28.607Z,17.40
2019-05-09T16:48:58.106Z,17.30
2019-05-09T16:51:28.590Z,17.40
2019-05-09T16:53:58.419Z,17.30
2019-05-09T16:56:28.731Z,17.30
2019-05-09T16:58:57.810Z,17.40
2019-05-09T17:01:28.410Z,17.30
2019-05-09T17:03:57.477Z,17.20
2019-05-09T17:06:27.479Z,17.20
2019-05-09T17:08:58.241Z,17.10
2019-05-09T17:11:27.809Z,17.00
2019-05-09T17:13:58.387Z,16.90
2019-05-09T17:16:28.444Z,16.90
2019-05-09T17:18:58.187Z,16.90
2019-05-09T17:21:40.127Z,16.90
2019-05-09T17:24:21.508Z,16.90
2019-05-09T17:26:49.925Z,16.80
2019-05-09T17:29:18.661Z,16.90
2019-05-09T17:31:48.778Z,16.90
2019-05-09T17:34:18.085Z,16.80
2019-05-09T17:36:46.655Z,16.70
2019-05-09T17:39:15.096Z,16.60
2019-05-09T17:41:43.565Z,16.60
2019-05-09T17:44:12.032Z,16.60
2019-05-09T17:46:40.640Z,16.60
2019-05-09T17:49:09.074Z,16.60
2019-05-09T17:51:37.537Z,16.60
2019-05-09T17:54:08.149Z,16.50
2019-05-09T17:56:37.944Z,16.50
2019-05-09T17:59:08.351Z,16.40
2019-05-09T18:01:36.495Z,16.30
2019-05-09T18:04:04.992Z,16.20
2019-05-09T18:06:33.524Z,16.10
2019-05-09T18:09:02.055Z,16.00
2019-05-09T18:11:30.499Z,15.80
2019-05-09T18:13:58.959Z,15.70
2019-05-09T18:16:28.453Z,15.60
2019-05-09T18:18:58.741Z,15.40
2019-05-09T18:21:28.336Z,15.40
2019-05-09T18:23:58.688Z,15.20
2019-05-09T18:26:27.590Z,15.00
2019-05-09T18:28:59.459Z,15.00
2019-05-09T18:31:27.951Z,14.90
2019-05-09T18:33:58.318Z,14.90
2019-05-09T18:36:28.247Z,14.70
2019-05-09T18:38:58.570Z,14.50
2019-05-09T18:41:28.591Z,14.30
2019-05-09T18:43:57.483Z,14.10
2019-05-09T18:46:27.915Z,13.90
2019-05-09T18:48:56.187Z,13.80
2019-05-09T18:51:24.627Z,13.70
2019-05-09T18:53:53.103Z,13.70
2019-05-09T18:56:21.591Z,13.60
2019-05-09T18:58:50.136Z,13.40
2019-05-09T19:01:18.631Z,13.30
2019-05-09T19:03:47.116Z,13.20
2019-05-09T19:06:15.537Z,13.10
2019-05-09T19:08:43.997Z,13.10
2019-05-09T19:11:12.459Z,13.10
2019-05-09T19:13:40.902Z,13.00
2019-05-09T19:16:26.961Z,12.70
2019-05-09T19:18:59.758Z,12.70
2019-05-09T19:21:29.833Z,12.70
2019-05-09T19:23:58.305Z,12.70
2019-05-09T19:26:28.519Z,12.70
2019-05-09T19:28:57.049Z,12.80
2019-05-09T19:31:25.682Z,12.80
2019-05-09T19:33:54.150Z,12.80
2019-05-09T19:36:22.591Z,13.00
2019-05-09T19:38:51.070Z,13.50
2019-05-09T19:41:19.502Z,13.60
2019-05-09T19:43:47.957Z,13.50
2019-05-09T19:46:16.642Z,13.40
2019-05-09T19:48:45.104Z,13.40
2019-05-09T19:51:13.551Z,13.30
2019-05-09T19:53:42.009Z,13.30
2019-05-09T19:56:10.529Z,13.20
2019-05-09T19:58:38.998Z,13.20
2019-05-09T20:01:07.506Z,13.20
2019-05-09T20:03:35.974Z,13.10
2019-05-09T20:06:04.413Z,13.00
2019-05-09T20:08:34.384Z,13.00
2019-05-09T20:11:20.701Z,13.00
2019-05-09T20:13:59.592Z,13.00
2019-05-09T20:16:29.959Z,13.00
2019-05-09T20:18:58.402Z,12.90
2019-05-09T20:21:26.877Z,12.80
2019-05-09T20:23:55.399Z,12.60
2019-05-09T20:26:23.938Z,12.50
2019-05-09T20:28:52.436Z,12.50
2019-05-09T20:31:20.903Z,12.30
2019-05-09T20:33:49.697Z,12.30
2019-05-09T20:36:18.154Z,12.30
2019-05-09T20:38:46.859Z,12.30
2019-05-09T20:41:15.560Z,12.30
2019-05-09T20:43:44.179Z,12.30
2019-05-09T20:46:12.824Z,12.40
2019-05-09T20:48:41.462Z,12.40
2019-05-09T20:51:10.155Z,12.40
2019-05-09T20:53:38.803Z,12.40
2019-05-09T20:56:07.428Z,12.40
2019-05-09T20:58:36.049Z,12.40
2019-05-09T21:01:04.717Z,12.40
2019-05-09T21:03:33.591Z,12.50
2019-05-09T21:06:04.985Z,12.50
2019-05-09T21:08:33.712Z,12.50
2019-05-09T21:11:02.607Z,12.50
2019-05-09T21:13:47.041Z,12.60
2019-05-09T21:16:02.511Z,12.50
2019-05-09T21:18:31.182Z,12.60
2019-05-09T21:20:59.838Z,12.60
2019-05-09T21:23:28.455Z,12.70
2019-05-09T21:25:57.110Z,12.70
